Time;durP1;ratioP1;P1;durP2;ratioP2;P2;SDS_P1;SDS_P2;PMS_P1;PMS_P2;Temp;Humidity;BMP_temperature;BMP_pressure;BME280_temperature;BME280_humidity;BME280_pressure;Samples;Min_cycle;Max_cycle;Signal;HPM_P1;HPM_P2
2021/05/24 00:00:27;;;;;;;6.07;4.90;;;7.40;99.90;;;;;;4991070;28;20023;-72
2021/05/24 00:02:54;;;;;;;9.25;4.80;;;7.40;99.90;;;;;;4991901;28;20388;-73
2021/05/24 00:05:22;;;;;;;6.25;4.95;;;7.30;99.90;;;;;;4991723;28;20366;-71
2021/05/24 00:07:48;;;;;;;10.20;5.03;;;7.20;99.90;;;;;;4991940;28;20030;-73
2021/05/24 00:10:20;;;;;;;7.05;5.07;;;7.20;99.90;;;;;;4991487;28;20469;-73
2021/05/24 00:12:47;;;;;;;6.90;4.95;;;7.20;99.90;;;;;;4992041;28;20400;-73
2021/05/24 00:15:19;;;;;;;7.50;4.78;;;7.10;99.90;;;;;;4992384;28;20019;-74
2021/05/24 00:17:47;;;;;;;11.57;4.68;;;7.10;99.90;;;;;;4991951;28;20054;-74
2021/05/24 00:20:13;;;;;;;8.65;4.70;;;7.00;99.90;;;;;;4989600;28;20050;-73
2021/05/24 00:22:38;;;;;;;6.68;4.47;;;7.00;99.90;;;;;;4992570;28;20036;-72
2021/05/24 00:25:06;;;;;;;6.90;4.95;;;7.00;99.90;;;;;;4991923;28;20105;-75
2021/05/24 00:27:32;;;;;;;7.75;4.97;;;7.00;99.90;;;;;;4993931;28;20495;-75
2021/05/24 00:29:58;;;;;;;5.60;5.10;;;6.90;99.90;;;;;;4998900;28;20030;-74
2021/05/24 00:32:24;;;;;;;6.88;4.80;;;6.90;99.90;;;;;;4992382;28;20031;-73
2021/05/24 00:34:50;;;;;;;5.95;4.68;;;6.90;99.90;;;;;;4991881;28;20034;-72
2021/05/24 00:37:16;;;;;;;6.40;4.82;;;6.90;99.90;;;;;;4992650;28;20057;-75
2021/05/24 00:39:42;;;;;;;5.10;4.43;;;6.80;99.90;;;;;;4992525;28;20037;-73
2021/05/24 00:42:08;;;;;;;7.25;4.70;;;6.90;99.90;;;;;;4992524;28;20396;-75
2021/05/24 00:44:34;;;;;;;4.70;4.20;;;6.90;99.90;;;;;;4991714;28;20038;-72
2021/05/24 00:46:59;;;;;;;5.82;4.25;;;6.80;99.90;;;;;;4991583;28;20034;-72
2021/05/24 00:49:28;;;;;;;8.07;4.30;;;6.80;99.90;;;;;;4991889;28;20031;-72
2021/05/24 00:51:55;;;;;;;4.72;3.83;;;6.80;99.90;;;;;;4994933;28;20022;-73
2021/05/24 00:54:22;;;;;;;5.25;4.55;;;6.90;99.90;;;;;;4995032;28;20480;-72
2021/05/24 00:56:48;;;;;;;7.45;4.45;;;6.90;99.90;;;;;;4995020;28;20362;-72
2021/05/24 00:59:15;;;;;;;5.10;4.22;;;6.80;99.90;;;;;;4995278;28;20644;-74
2021/05/24 01:01:41;;;;;;;6.20;4.57;;;6.80;99.90;;;;;;4994099;28;20038;-73
2021/05/24 01:04:06;;;;;;;11.45;5.25;;;6.80;99.90;;;;;;4994676;28;20489;-73
2021/05/24 01:06:32;;;;;;;8.55;5.63;;;6.70;99.90;;;;;;4994493;28;20038;-74
2021/05/24 01:08:58;;;;;;;6.93;4.35;;;6.70;99.90;;;;;;4994595;28;20037;-73
2021/05/24 01:11:23;;;;;;;7.47;5.10;;;6.70;99.90;;;;;;4994029;28;20512;-73
2021/05/24 01:13:49;;;;;;;10.27;4.55;;;6.70;99.90;;;;;;4994730;28;20106;-73
2021/05/24 01:16:15;;;;;;;10.32;5.10;;;6.60;99.90;;;;;;4994597;28;20042;-72
2021/05/24 01:18:41;;;;;;;6.32;4.50;;;6.70;99.90;;;;;;4994502;28;20100;-73
2021/05/24 01:21:09;;;;;;;8.25;4.97;;;6.60;99.90;;;;;;4993625;28;20548;-73
2021/05/24 01:23:41;;;;;;;7.90;4.28;;;6.60;99.90;;;;;;4994512;28;20026;-73
2021/05/24 01:26:08;;;;;;;6.15;4.40;;;6.70;99.90;;;;;;4994569;28;20050;-72
2021/05/24 01:28:34;;;;;;;9.80;4.53;;;6.60;99.90;;;;;;4994363;28;20099;-72
2021/05/24 01:31:00;;;;;;;8.13;4.45;;;6.50;99.90;;;;;;4993393;28;20540;-73
2021/05/24 01:33:26;;;;;;;5.90;4.55;;;6.60;99.90;;;;;;5009943;28;20023;-72
2021/05/24 01:35:52;;;;;;;4.43;3.95;;;6.50;99.90;;;;;;5002674;28;20026;-74
2021/05/24 01:38:18;;;;;;;5.53;4.65;;;6.50;99.90;;;;;;5013292;28;20053;-73
2021/05/24 01:40:46;;;;;;;7.47;4.78;;;6.40;99.90;;;;;;5014585;28;20022;-73
2021/05/24 01:43:14;;;;;;;7.00;4.50;;;6.40;99.90;;;;;;5014457;28;20411;-74
2021/05/24 01:45:40;;;;;;;5.65;4.80;;;6.50;99.90;;;;;;5013333;28;20201;-74
2021/05/24 01:48:07;;;;;;;7.03;4.57;;;6.50;99.90;;;;;;4999372;28;20028;-73
2021/05/24 01:50:33;;;;;;;5.53;4.13;;;6.50;99.90;;;;;;4993478;28;20030;-71
2021/05/24 01:52:59;;;;;;;6.03;4.75;;;6.50;99.90;;;;;;4994145;28;20026;-74
2021/05/24 01:55:24;;;;;;;7.72;4.70;;;6.50;99.90;;;;;;4993711;28;20022;-73
2021/05/24 01:57:53;;;;;;;6.72;5.22;;;6.50;99.90;;;;;;4994152;28;20088;-73
2021/05/24 02:00:23;;;;;;;5.38;4.22;;;6.50;99.90;;;;;;4992816;28;20034;-73
2021/05/24 02:02:50;;;;;;;6.57;4.35;;;6.50;99.90;;;;;;4993725;28;20069;-73
2021/05/24 02:05:17;;;;;;;4.05;3.75;;;6.40;99.90;;;;;;4993489;28;20038;-74
2021/05/24 02:07:46;;;;;;;4.90;3.70;;;6.30;99.90;;;;;;4993765;28;20070;-73
2021/05/24 02:10:15;;;;;;;5.90;4.07;;;6.20;99.90;;;;;;4993042;28;20037;-73
2021/05/24 02:12:41;;;;;;;7.35;4.13;;;6.30;99.90;;;;;;4993401;28;20038;-73
2021/05/24 02:15:08;;;;;;;5.45;4.70;;;6.30;99.90;;;;;;4976111;28;20388;-73
2021/05/24 02:17:34;;;;;;;4.95;4.32;;;6.30;99.90;;;;;;4993445;28;20033;-73
2021/05/24 02:20:00;;;;;;;7.43;4.50;;;6.20;99.90;;;;;;4992969;28;20030;-73
2021/05/24 02:22:26;;;;;;;8.90;4.97;;;6.20;99.90;;;;;;4993266;28;20184;-73
2021/05/24 02:24:51;;;;;;;8.18;4.63;;;6.20;99.90;;;;;;4993587;28;20053;-73
2021/05/24 02:27:17;;;;;;;8.02;4.78;;;6.10;99.90;;;;;;4993241;28;20440;-73
2021/05/24 02:29:43;;;;;;;4.90;4.40;;;6.30;99.90;;;;;;5001548;28;20421;-73
2021/05/24 02:32:09;;;;;;;8.10;4.07;;;6.20;99.90;;;;;;5012847;28;20080;-73
2021/05/24 02:34:35;;;;;;;6.10;4.38;;;6.20;99.90;;;;;;5013124;28;20117;-73
2021/05/24 02:37:02;;;;;;;5.43;4.88;;;6.10;99.90;;;;;;5012484;28;20026;-72
2021/05/24 02:39:27;;;;;;;10.27;4.82;;;6.20;99.90;;;;;;5012215;28;20033;-73
2021/05/24 02:41:53;;;;;;;7.90;4.32;;;6.20;99.90;;;;;;5012270;28;20420;-72
2021/05/24 02:44:19;;;;;;;5.72;5.18;;;6.20;99.90;;;;;;5012838;28;20429;-72
2021/05/24 02:46:44;;;;;;;10.95;4.95;;;6.10;99.90;;;;;;5012525;28;20029;-72
2021/05/24 02:49:10;;;;;;;11.38;5.75;;;6.20;99.90;;;;;;5012345;28;20041;-73
2021/05/24 02:51:36;;;;;;;10.70;5.75;;;6.20;99.90;;;;;;5011589;28;20026;-73
2021/05/24 02:54:05;;;;;;;8.20;4.78;;;6.20;99.90;;;;;;5012549;28;20030;-73
2021/05/24 02:56:31;;;;;;;6.70;4.93;;;6.20;99.90;;;;;;5012190;28;20041;-72
2021/05/24 02:58:56;;;;;;;11.57;5.57;;;6.30;99.90;;;;;;5009250;28;20030;-72
2021/05/24 03:01:24;;;;;;;10.52;4.80;;;6.30;99.90;;;;;;4992562;28;20029;-72
2021/05/24 03:03:53;;;;;;;5.82;4.40;;;6.20;99.90;;;;;;4993246;28;20474;-73
2021/05/24 03:06:19;;;;;;;18.95;4.70;;;6.10;99.90;;;;;;4992245;28;20105;-72
2021/05/24 03:08:45;;;;;;;5.97;4.40;;;6.00;99.90;;;;;;4992672;28;20117;-72
2021/05/24 03:11:11;;;;;;;6.43;4.00;;;5.90;99.90;;;;;;4992080;28;20062;-72
2021/05/24 03:13:37;;;;;;;7.32;4.68;;;5.90;99.90;;;;;;4992299;28;20026;-72
2021/05/24 03:16:03;;;;;;;7.63;4.25;;;6.00;99.90;;;;;;4992504;28;20030;-73
2021/05/24 03:18:29;;;;;;;4.60;3.90;;;6.00;99.90;;;;;;4992421;28;20026;-72
2021/05/24 03:20:54;;;;;;;5.95;3.60;;;5.90;99.90;;;;;;4991680;28;20037;-73
2021/05/24 03:23:20;;;;;;;5.05;4.10;;;6.00;99.90;;;;;;4992520;28;20117;-73
2021/05/24 03:25:46;;;;;;;6.40;3.63;;;6.10;99.90;;;;;;4992158;28;20038;-73
2021/05/24 03:28:12;;;;;;;5.57;3.42;;;5.90;99.90;;;;;;4992359;28;20117;-73
2021/05/24 03:30:37;;;;;;;3.83;3.42;;;5.90;99.90;;;;;;4991562;28;20034;-73
2021/05/24 03:33:03;;;;;;;6.28;3.78;;;5.90;99.90;;;;;;4992220;28;20109;-73
2021/05/24 03:35:29;;;;;;;5.80;3.90;;;5.90;99.90;;;;;;4992042;28;20053;-73
2021/05/24 03:37:54;;;;;;;4.65;4.07;;;6.00;99.90;;;;;;4992149;28;20077;-73
2021/05/24 03:40:20;;;;;;;9.23;4.28;;;5.90;99.90;;;;;;4991667;28;20038;-73
2021/05/24 03:42:46;;;;;;;4.50;3.65;;;5.90;99.90;;;;;;4974556;28;20029;-74
2021/05/24 03:45:18;;;;;;;4.70;3.92;;;5.80;99.90;;;;;;4991153;28;20041;-73
2021/05/24 03:47:44;;;;;;;3.88;3.45;;;5.80;99.90;;;;;;4992486;28;20488;-72
2021/05/24 03:50:12;;;;;;;4.40;3.75;;;5.80;99.90;;;;;;4994676;28;20068;-74
2021/05/24 03:52:37;;;;;;;4.50;4.07;;;5.90;99.90;;;;;;5007897;28;20468;-74
2021/05/24 03:55:05;;;;;;;8.15;4.32;;;6.00;99.90;;;;;;4992705;28;20089;-74
2021/05/24 03:57:31;;;;;;;5.20;4.70;;;5.90;99.90;;;;;;4992843;28;20030;-74
2021/05/24 03:59:56;;;;;;;4.85;4.40;;;6.00;99.90;;;;;;4981844;28;20037;-74
2021/05/24 04:02:22;;;;;;;6.35;4.68;;;6.00;99.90;;;;;;4991750;28;20501;-73
2021/05/24 04:04:49;;;;;;;7.82;4.65;;;6.00;99.90;;;;;;4991919;28;20030;-73
2021/05/24 04:07:21;;;;;;;10.40;4.57;;;5.90;99.90;;;;;;4991409;28;20026;-75
2021/05/24 04:09:47;;;;;;;11.68;5.88;;;6.00;99.90;;;;;;4973834;28;20023;-73
2021/05/24 04:12:13;;;;;;;6.78;4.80;;;6.00;99.90;;;;;;4991455;28;20042;-73
2021/05/24 04:14:40;;;;;;;9.23;5.25;;;6.00;99.90;;;;;;4991857;28;20080;-73
2021/05/24 04:17:06;;;;;;;7.03;5.15;;;6.00;99.90;;;;;;4991994;28;20023;-74
2021/05/24 04:19:32;;;;;;;7.22;5.38;;;6.10;99.90;;;;;;4991171;28;20031;-73
2021/05/24 04:21:58;;;;;;;7.35;5.25;;;6.10;99.90;;;;;;4991348;28;20168;-73
2021/05/24 04:24:23;;;;;;;8.45;4.80;;;6.10;99.90;;;;;;4992942;28;20037;-73
2021/05/24 04:26:49;;;;;;;7.30;4.10;;;6.00;99.90;;;;;;4995416;28;20034;-72
2021/05/24 04:29:15;;;;;;;6.43;4.43;;;5.90;99.90;;;;;;4995512;28;20037;-73
2021/05/24 04:31:40;;;;;;;6.05;4.18;;;5.90;99.90;;;;;;4994686;28;20026;-73
2021/05/24 04:34:06;;;;;;;4.40;4.00;;;5.90;99.90;;;;;;4995492;28;20073;-72
2021/05/24 04:36:31;;;;;;;5.07;4.07;;;6.00;99.90;;;;;;4994420;28;20459;-72
2021/05/24 04:38:57;;;;;;;8.90;3.92;;;6.20;99.90;;;;;;4995505;28;20166;-72
2021/05/24 04:41:23;;;;;;;4.45;4.05;;;6.20;99.90;;;;;;4994531;28;20715;-72
2021/05/24 04:43:51;;;;;;;6.13;3.65;;;6.10;99.90;;;;;;4995127;28;20026;-72
2021/05/24 04:46:17;;;;;;;7.63;4.10;;;6.30;99.90;;;;;;4995176;28;20117;-73
2021/05/24 04:48:42;;;;;;;5.15;3.33;;;6.10;99.90;;;;;;4995012;28;20101;-71
2021/05/24 04:51:08;;;;;;;6.20;4.15;;;6.10;99.90;;;;;;4994079;28;20481;-71
2021/05/24 04:53:34;;;;;;;6.80;3.88;;;5.90;99.90;;;;;;4995247;28;20030;-76
2021/05/24 04:56:00;;;;;;;3.60;3.30;;;5.90;99.90;;;;;;4995105;28;20541;-72
2021/05/24 04:58:25;;;;;;;4.72;3.75;;;6.10;99.90;;;;;;4995083;28;20385;-72
2021/05/24 05:00:51;;;;;;;6.18;3.67;;;6.20;99.90;;;;;;4994628;28;20033;-72
2021/05/24 05:03:17;;;;;;;4.30;3.40;;;6.30;99.90;;;;;;4995764;28;20502;-73
2021/05/24 05:05:42;;;;;;;4.20;3.30;;;6.30;99.90;;;;;;4996066;28;20052;-73
2021/05/24 05:08:09;;;;;;;4.28;3.28;;;6.30;99.90;;;;;;4995714;28;20101;-74
2021/05/24 05:10:34;;;;;;;5.60;3.65;;;6.40;99.90;;;;;;4994399;28;20484;-73
2021/05/24 05:13:00;;;;;;;5.35;4.22;;;6.60;99.90;;;;;;4995822;28;20042;-72
2021/05/24 05:15:26;;;;;;;7.80;3.78;;;6.80;99.90;;;;;;4996294;28;20025;-72
2021/05/24 05:17:52;;;;;;;5.65;3.30;;;6.80;99.90;;;;;;4995845;28;20026;-73
2021/05/24 05:20:18;;;;;;;4.15;3.75;;;6.80;99.90;;;;;;4993607;28;20030;-74
2021/05/24 05:22:43;;;;;;;6.03;3.83;;;6.80;99.90;;;;;;4991626;28;20156;-74
2021/05/24 05:25:10;;;;;;;3.85;3.50;;;6.80;99.90;;;;;;4995328;28;20027;-74
2021/05/24 05:27:35;;;;;;;4.88;3.53;;;6.90;99.90;;;;;;4999751;28;20549;-74
2021/05/24 05:30:01;;;;;;;4.00;3.10;;;6.90;99.90;;;;;;4999977;28;20160;-73
2021/05/24 05:32:27;;;;;;;3.92;3.25;;;6.80;99.90;;;;;;4993503;28;20471;-72
2021/05/24 05:34:53;;;;;;;6.35;3.17;;;6.80;99.90;;;;;;4992241;28;20030;-72
2021/05/24 05:37:20;;;;;;;3.35;2.90;;;6.80;99.90;;;;;;4994093;28;20089;-72
2021/05/24 05:39:49;;;;;;;6.68;3.47;;;6.90;99.90;;;;;;4998464;28;20028;-73
2021/05/24 05:42:15;;;;;;;4.70;3.30;;;7.00;99.90;;;;;;4993743;28;20053;-73
2021/05/24 05:44:41;;;;;;;3.08;2.78;;;6.90;99.90;;;;;;4991645;28;20112;-72
2021/05/24 05:47:06;;;;;;;4.65;3.40;;;7.00;99.90;;;;;;4991585;28;20042;-72
2021/05/24 05:49:32;;;;;;;5.20;3.30;;;7.10;99.90;;;;;;4991626;28;20043;-74
2021/05/24 05:51:58;;;;;;;3.50;3.20;;;7.00;99.90;;;;;;4991869;28;20041;-74
2021/05/24 05:54:23;;;;;;;7.43;3.03;;;6.80;99.90;;;;;;4991143;28;20045;-73
2021/05/24 05:56:49;;;;;;;6.65;3.42;;;6.80;99.90;;;;;;4996313;28;20068;-73
2021/05/24 05:59:18;;;;;;;5.32;3.00;;;6.80;99.90;;;;;;4993304;28;20038;-73
2021/05/24 06:01:44;;;;;;;3.08;2.70;;;7.10;99.90;;;;;;5010994;28;20018;-73
2021/05/24 06:04:10;;;;;;;4.47;3.15;;;7.30;99.90;;;;;;5011041;28;20042;-72
2021/05/24 06:06:35;;;;;;;5.15;3.10;;;7.60;99.90;;;;;;5011128;28;20030;-72
2021/05/24 06:09:01;;;;;;;3.38;2.75;;;7.70;99.90;;;;;;5010684;28;20044;-72
2021/05/24 06:11:27;;;;;;;3.05;2.50;;;7.70;99.90;;;;;;4993195;28;20030;-73
2021/05/24 06:13:52;;;;;;;3.80;3.05;;;7.50;99.90;;;;;;5012357;28;20431;-72
2021/05/24 06:16:18;;;;;;;3.58;2.42;;;7.70;99.90;;;;;;5010800;28;20523;-73
2021/05/24 06:18:44;;;;;;;4.22;3.13;;;7.80;99.90;;;;;;5011262;28;20053;-73
2021/05/24 06:21:09;;;;;;;3.38;2.58;;;7.80;99.90;;;;;;5010077;28;20030;-73
2021/05/24 06:23:35;;;;;;;3.83;2.83;;;7.70;99.90;;;;;;5011039;28;20029;-73
2021/05/24 06:26:01;;;;;;;4.05;3.25;;;8.00;99.90;;;;;;5010602;28;20038;-72
2021/05/24 06:28:27;;;;;;;5.82;3.20;;;8.00;99.90;;;;;;5011457;28;20046;-73
2021/05/24 06:30:52;;;;;;;4.70;2.80;;;8.00;99.90;;;;;;4991343;28;20040;-72
2021/05/24 06:33:18;;;;;;;3.20;2.78;;;7.90;99.90;;;;;;4991359;28;20034;-73
2021/05/24 06:35:43;;;;;;;4.43;2.63;;;8.00;99.90;;;;;;4992618;28;20030;-72
2021/05/24 06:38:09;;;;;;;3.25;2.30;;;8.30;99.90;;;;;;4991017;28;20039;-72
2021/05/24 06:40:35;;;;;;;5.20;2.60;;;8.50;99.90;;;;;;4991315;28;20476;-72
2021/05/24 06:43:00;;;;;;;3.30;2.90;;;8.70;99.90;;;;;;4991096;28;20050;-72
2021/05/24 06:45:26;;;;;;;5.15;2.80;;;8.80;99.90;;;;;;4991355;28;20035;-73
2021/05/24 06:47:52;;;;;;;3.78;2.30;;;8.60;99.90;;;;;;4990618;28;20089;-74
2021/05/24 06:50:18;;;;;;;3.80;2.70;;;8.70;99.90;;;;;;4972231;28;20046;-72
2021/05/24 06:52:44;;;;;;;4.80;2.20;;;8.90;99.90;;;;;;4991231;28;20038;-72
2021/05/24 06:55:10;;;;;;;2.33;2.13;;;8.70;99.90;;;;;;4990251;28;20030;-72
2021/05/24 06:57:36;;;;;;;3.20;2.22;;;8.70;99.90;;;;;;4990854;28;20038;-73
2021/05/24 07:00:04;;;;;;;5.30;2.65;;;8.90;99.90;;;;;;4989568;28;20122;-73
2021/05/24 07:02:30;;;;;;;4.07;2.33;;;9.30;99.90;;;;;;4990335;28;20116;-72
2021/05/24 07:04:56;;;;;;;4.07;2.15;;;9.40;99.90;;;;;;4990612;28;20492;-71
2021/05/24 07:07:21;;;;;;;2.20;2.00;;;9.60;99.90;;;;;;4990039;28;20461;-72
2021/05/24 07:09:47;;;;;;;4.63;2.15;;;10.00;99.90;;;;;;4990310;28;20030;-71
2021/05/24 07:12:13;;;;;;;2.42;1.88;;;10.40;99.90;;;;;;4989998;28;20069;-71
2021/05/24 07:14:38;;;;;;;1.83;1.73;;;10.70;99.90;;;;;;4990675;28;20531;-72
2021/05/24 07:17:04;;;;;;;2.70;1.88;;;10.90;99.90;;;;;;4990486;28;20357;-74
2021/05/24 07:19:30;;;;;;;3.15;1.70;;;10.70;99.90;;;;;;4990328;28;20671;-73
2021/05/24 07:21:56;;;;;;;2.30;2.10;;;10.60;99.90;;;;;;4985589;28;20039;-73
2021/05/24 07:24:22;;;;;;;4.53;1.70;;;10.80;99.90;;;;;;4993312;28;20037;-72
2021/05/24 07:26:49;;;;;;;1.65;1.50;;;10.80;99.90;;;;;;5010184;28;20088;-71
2021/05/24 07:29:16;;;;;;;4.78;1.90;;;10.70;99.90;;;;;;5009704;28;20038;-71
2021/05/24 07:31:41;;;;;;;3.67;1.80;;;10.90;99.90;;;;;;5009603;28;20041;-72
2021/05/24 07:34:07;;;;;;;4.68;1.70;;;11.20;99.90;;;;;;4992144;28;20027;-73
2021/05/24 07:36:32;;;;;;;4.90;1.95;;;11.50;99.90;;;;;;4992680;28;20030;-72
2021/05/24 07:38:58;;;;;;;2.97;1.73;;;11.80;99.90;;;;;;4993110;28;20113;-70
2021/05/24 07:41:24;;;;;;;3.42;1.90;;;11.80;99.90;;;;;;5009253;28;20116;-71
2021/05/24 07:43:49;;;;;;;2.97;1.73;;;11.80;99.90;;;;;;5010165;28;20189;-73
2021/05/24 07:46:15;;;;;;;2.15;1.35;;;11.80;99.90;;;;;;5008996;28;20042;-73
2021/05/24 07:48:41;;;;;;;5.75;1.95;;;12.20;99.90;;;;;;5010179;28;20030;-72
2021/05/24 07:51:07;;;;;;;3.90;1.70;;;11.60;99.90;;;;;;5008928;28;20034;-73
2021/05/24 07:53:32;;;;;;;1.55;1.45;;;11.70;99.90;;;;;;4991803;28;20022;-72
2021/05/24 07:55:58;;;;;;;6.32;1.50;;;11.70;99.90;;;;;;5010262;28;20037;-72
2021/05/24 07:58:24;;;;;;;2.10;1.10;;;11.70;99.90;;;;;;5010759;28;20037;-73
2021/05/24 08:00:50;;;;;;;2.75;1.42;;;12.00;99.90;;;;;;4994668;28;20085;-71
2021/05/24 08:03:16;;;;;;;2.70;1.40;;;12.60;99.90;;;;;;4998201;28;20038;-72
2021/05/24 08:05:41;;;;;;;2.20;1.27;;;12.90;99.90;;;;;;5004256;28;20416;-73
2021/05/24 08:08:07;;;;;;;3.85;1.40;;;13.40;99.90;;;;;;5009249;28;20034;-72
2021/05/24 08:10:33;;;;;;;3.40;1.38;;;12.90;99.90;;;;;;5012812;28;20038;-70
2021/05/24 08:12:58;;;;;;;1.67;1.10;;;12.90;99.90;;;;;;5013756;28;20070;-71
2021/05/24 08:15:33;;;;;;;1.40;1.30;;;12.80;99.90;;;;;;5013339;28;20092;-70
2021/05/24 08:18:04;;;;;;;2.33;1.65;;;12.40;99.90;;;;;;4994882;28;20389;-71
2021/05/24 08:20:31;;;;;;;1.95;1.40;;;12.60;99.90;;;;;;4993518;28;20038;-70
2021/05/24 08:22:57;;;;;;;4.10;1.60;;;12.90;99.90;;;;;;4994264;28;20034;-71
2021/05/24 08:25:23;;;;;;;3.20;1.65;;;13.30;99.90;;;;;;4993515;28;20034;-71
2021/05/24 08:27:48;;;;;;;3.80;1.52;;;13.60;99.90;;;;;;4993738;28;20101;-71
2021/05/24 08:30:15;;;;;;;1.33;1.17;;;13.50;99.90;;;;;;4992712;28;20042;-71
2021/05/24 08:32:41;;;;;;;2.08;1.23;;;13.70;99.90;;;;;;4993754;28;20038;-71
2021/05/24 08:35:08;;;;;;;2.90;1.80;;;13.80;99.90;;;;;;4993754;28;20085;-71
2021/05/24 08:37:34;;;;;;;1.85;1.17;;;13.70;99.90;;;;;;4993935;28;20030;-74
2021/05/24 08:40:00;;;;;;;2.03;1.40;;;13.80;99.90;;;;;;4993711;28;20085;-75
2021/05/24 08:42:30;;;;;;;2.30;1.02;;;14.00;99.90;;;;;;4991573;28;20034;-73
2021/05/24 08:44:57;;;;;;;10.70;2.22;;;14.20;99.90;;;;;;4992682;28;20084;-73
2021/05/24 08:47:24;;;;;;;2.30;1.38;;;14.10;99.90;;;;;;4992893;28;20118;-74
2021/05/24 08:49:51;;;;;;;2.00;1.30;;;14.40;99.90;;;;;;4994220;28;20038;-74
2021/05/24 08:52:17;;;;;;;3.65;1.23;;;14.80;99.90;;;;;;4995059;28;20042;-76
2021/05/24 08:54:43;;;;;;;11.80;4.22;;;15.20;99.90;;;;;;4996285;28;20485;-77
2021/05/24 08:57:09;;;;;;;1.92;1.30;;;15.20;99.90;;;;;;4997146;28;20101;-77
2021/05/24 08:59:34;;;;;;;2.60;1.27;;;15.60;99.90;;;;;;5006506;28;20034;-75
2021/05/24 09:02:00;;;;;;;3.42;1.30;;;15.50;99.90;;;;;;5023733;28;20040;-74
2021/05/24 09:04:48;;;;;;;1.95;0.95;;;15.60;99.90;;;;;;5017892;28;20034;-76
2021/05/24 09:07:15;;;;;;;5.90;1.30;;;15.10;99.90;;;;;;5013568;28;20042;-77
2021/05/24 09:10:04;;;;;;;2.28;0.90;;;15.30;99.90;;;;;;5012886;28;20033;-77
2021/05/24 09:12:31;;;;;;;0.98;0.73;;;15.40;99.90;;;;;;5013006;28;20083;-76
2021/05/24 09:15:00;;;;;;;1.80;0.90;;;15.80;99.90;;;;;;5014452;28;20546;-77
2021/05/24 09:17:41;;;;;;;1.73;0.90;;;16.30;99.90;;;;;;4998403;28;20042;-78
2021/05/24 09:20:20;;;;;;;3.95;1.08;;;15.30;99.90;;;;;;4975642;28;20031;-75
2021/05/24 09:23:23;;;;;;;2.38;0.90;;;15.30;99.90;;;;;;4996010;28;20042;-71
2021/05/24 09:26:04;;;;;;;2.92;0.85;;;15.50;99.90;;;;;;4996568;28;20549;-72
2021/05/24 09:28:42;;;;;;;1.10;0.90;;;15.90;99.90;;;;;;4995403;28;20090;-73
2021/05/24 09:31:17;;;;;;;3.70;0.80;;;16.50;99.90;;;;;;4992809;28;20092;-74
2021/05/24 09:33:54;;;;;;;1.85;0.95;;;17.10;99.90;;;;;;4977780;28;20027;-70
2021/05/24 09:36:20;;;;;;;3.67;0.88;;;17.30;99.90;;;;;;4992153;28;20038;-71
2021/05/24 09:38:47;;;;;;;0.82;0.80;;;17.30;99.90;;;;;;4993056;28;20492;-70
2021/05/24 09:41:17;;;;;;;2.38;1.10;;;16.60;99.90;;;;;;4992472;28;20038;-72
2021/05/24 09:43:48;;;;;;;0.70;0.70;;;16.60;99.90;;;;;;4993651;28;20080;-72
2021/05/24 09:46:22;;;;;;;1.40;0.68;;;16.50;99.90;;;;;;4993845;28;20038;-74
2021/05/24 09:48:55;;;;;;;0.55;0.55;;;16.70;99.90;;;;;;5003424;28;20030;-75
2021/05/24 09:51:23;;;;;;;2.28;0.70;;;16.80;99.90;;;;;;5001652;28;20401;-72
2021/05/24 09:54:02;;;;;;;1.15;0.60;;;17.20;98.70;;;;;;5012572;28;20113;-71
2021/05/24 09:56:35;;;;;;;0.77;0.68;;;17.60;98.60;;;;;;5012172;28;20026;-72
2021/05/24 09:59:13;;;;;;;1.30;0.80;;;17.20;99.40;;;;;;5007416;28;20089;-73
2021/05/24 10:01:43;;;;;;;2.88;0.90;;;17.40;99.90;;;;;;4974078;28;20045;-72
2021/05/24 10:04:14;;;;;;;1.55;0.80;;;17.60;99.70;;;;;;4991875;28;20035;-71
2021/05/24 10:06:40;;;;;;;1.95;0.80;;;17.30;99.90;;;;;;4992373;28;20031;-71
2021/05/24 10:09:08;;;;;;;2.58;0.98;;;17.40;99.90;;;;;;4973669;28;20527;-70
2021/05/24 10:11:35;;;;;;;1.42;0.90;;;17.60;99.60;;;;;;4991461;28;20458;-72
2021/05/24 10:14:02;;;;;;;4.28;1.15;;;17.60;99.90;;;;;;4990984;28;20113;-72
2021/05/24 10:16:32;;;;;;;1.35;0.98;;;17.50;99.90;;;;;;4999586;28;20042;-72
2021/05/24 10:18:58;;;;;;;2.28;1.10;;;18.00;99.90;;;;;;5011700;28;20666;-71
2021/05/24 10:21:24;;;;;;;4.85;1.00;;;18.40;99.30;;;;;;5000154;28;20105;-71
2021/05/24 10:23:51;;;;;;;1.15;1.08;;;18.00;99.90;;;;;;4991840;28;20476;-72
2021/05/24 10:26:19;;;;;;;1.98;1.10;;;18.10;99.70;;;;;;4991179;28;20118;-72
2021/05/24 10:28:46;;;;;;;1.83;1.10;;;18.00;99.90;;;;;;4990726;28;20027;-72
2021/05/24 10:31:27;;;;;;;1.27;0.95;;;18.30;99.90;;;;;;4990813;28;20098;-72
2021/05/24 10:33:54;;;;;;;1.83;1.08;;;18.60;99.90;;;;;;5001506;28;20571;-72
2021/05/24 10:36:25;;;;;;;2.80;1.05;;;18.70;99.30;;;;;;5003921;28;20233;-70
2021/05/24 10:39:04;;;;;;;1.38;1.13;;;18.70;99.10;;;;;;5010448;28;20037;-74
2021/05/24 10:41:54;;;;;;;1.38;1.00;;;17.60;99.90;;;;;;4990328;28;20076;-73
2021/05/24 10:44:25;;;;;;;3.67;1.75;;;17.30;99.90;;;;;;4990594;28;21371;-70
2021/05/24 10:46:54;;;;;;;2.10;1.45;;;16.90;99.90;;;;;;4991142;28;20038;-71
2021/05/24 10:49:27;;;;;;;1.90;1.55;;;16.90;99.90;;;;;;4988533;28;20042;-72
2021/05/24 10:51:59;;;;;;;3.30;1.80;;;16.90;99.90;;;;;;4991239;28;20033;-71
2021/05/24 10:54:30;;;;;;;;;;;17.20;99.90;;;;;;4996197;28;20029;-71
2021/05/24 10:56:58;;;;;;;1.50;1.15;;;17.20;99.90;;;;;;4996049;28;19909;-72
2021/05/24 10:59:40;;;;;;;1.65;1.20;;;17.30;99.90;;;;;;4991792;28;20037;-71
2021/05/24 11:02:30;;;;;;;1.40;1.30;;;17.40;99.90;;;;;;5009881;28;20041;-72
2021/05/24 11:05:10;;;;;;;2.67;1.50;;;17.30;99.90;;;;;;4968612;28;20030;-72
2021/05/24 11:07:39;;;;;;;2.25;1.00;;;17.80;99.90;;;;;;4990629;28;20480;-72
2021/05/24 11:10:17;;;;;;;2.45;1.40;;;18.10;99.90;;;;;;4971293;28;20050;-72
2021/05/24 11:12:44;;;;;;;2.25;1.70;;;18.40;99.90;;;;;;4991020;28;20100;-73
2021/05/24 11:15:23;;;;;;;2.38;1.63;;;19.40;99.90;;;;;;4990342;28;20046;-73
2021/05/24 11:18:02;;;;;;;4.13;1.67;;;20.40;99.30;;;;;;4990659;28;20038;-72
2021/05/24 11:20:34;;;;;;;3.90;2.67;;;20.30;99.60;;;;;;4971873;28;20057;-74
2021/05/24 11:23:22;;;;;;;12.20;7.97;;;20.80;98.40;;;;;;4999328;28;20282;-81
2021/05/24 11:26:00;;;;;;;12.93;9.77;;;21.00;99.40;;;;;;4994547;28;20045;-79
2021/05/24 11:28:35;;;;;;;2.70;1.70;;;20.90;97.70;;;;;;4976500;28;20029;-79
2021/05/24 11:31:11;;;;;;;10.73;7.78;;;20.80;98.30;;;;;;4975266;28;20034;-78
2021/05/24 11:33:43;;;;;;;4.97;1.40;;;20.80;99.60;;;;;;4990235;28;20034;-76
2021/05/24 11:36:13;;;;;;;2.10;1.20;;;20.00;96.60;;;;;;4989603;28;20096;-75
2021/05/24 11:38:39;;;;;;;3.72;1.40;;;19.90;99.00;;;;;;4990523;28;20109;-74
2021/05/24 11:41:16;;;;;;;3.97;1.20;;;20.90;97.60;;;;;;5006948;28;20137;-73
2021/05/24 11:43:43;;;;;;;1.92;0.90;;;21.10;97.30;;;;;;5009889;28;20034;-74
2021/05/24 11:46:12;;;;;;;1.77;1.40;;;21.20;96.20;;;;;;5009680;28;20034;-74
2021/05/24 11:48:43;;;;;;;1.95;1.10;;;21.20;95.70;;;;;;5009831;28;20053;-74
2021/05/24 11:51:10;;;;;;;5.73;0.93;;;21.70;95.50;;;;;;5008188;28;20121;-74
2021/05/24 11:53:37;;;;;;;2.00;1.10;;;21.60;94.90;;;;;;5009955;28;20630;-75
2021/05/24 11:56:12;;;;;;;1.20;1.00;;;21.60;95.00;;;;;;5008693;28;20412;-75
2021/05/24 11:58:58;;;;;;;2.55;1.10;;;21.50;95.30;;;;;;4992440;28;20109;-75
2021/05/24 12:01:24;;;;;;;1.02;0.77;;;21.10;95.40;;;;;;5008465;28;20049;-75
2021/05/24 12:03:50;;;;;;;2.53;0.95;;;20.10;95.30;;;;;;5009623;28;20077;-72
2021/05/24 12:06:17;;;;;;;0.70;0.70;;;20.00;95.20;;;;;;5009071;28;20034;-74
2021/05/24 12:08:45;;;;;;;1.75;0.90;;;19.80;95.30;;;;;;4992177;28;20077;-76
2021/05/24 12:11:13;;;;;;;1.00;0.85;;;19.80;96.80;;;;;;5008037;28;20116;-75
2021/05/24 12:13:55;;;;;;;0.60;0.60;;;20.20;95.20;;;;;;5010077;28;20500;-76
2021/05/24 12:16:21;;;;;;;1.10;0.90;;;19.90;94.30;;;;;;5002097;28;20053;-76
2021/05/24 12:18:56;;;;;;;6.78;0.77;;;19.50;94.80;;;;;;4989950;28;20030;-75
2021/05/24 12:21:37;;;;;;;0.80;0.80;;;20.00;94.20;;;;;;4999627;28;20085;-76
2021/05/24 12:24:05;;;;;;;1.00;0.88;;;20.30;94.60;;;;;;4979667;28;20085;-75
2021/05/24 12:26:32;;;;;;;1.20;0.90;;;20.50;92.90;;;;;;4999716;28;20046;-77
2021/05/24 12:28:59;;;;;;;0.95;0.75;;;20.40;93.30;;;;;;5003382;28;20069;-79
2021/05/24 12:31:26;;;;;;;1.00;0.90;;;20.20;93.70;;;;;;4981969;28;20110;-79
2021/05/24 12:33:53;;;;;;;1.10;1.00;;;20.20;94.90;;;;;;4998086;28;20027;-78
2021/05/24 12:36:21;;;;;;;1.70;0.98;;;20.20;93.90;;;;;;4994844;28;20449;-77
2021/05/24 12:38:51;;;;;;;3.75;1.15;;;20.30;93.50;;;;;;4991349;28;20393;-78
2021/05/24 12:41:19;;;;;;;2.13;0.80;;;20.40;92.90;;;;;;4990233;28;20045;-75
2021/05/24 12:43:54;;;;;;;1.40;0.80;;;20.10;93.00;;;;;;4990235;28;20121;-77
2021/05/24 12:46:21;;;;;;;1.23;0.80;;;19.60;94.40;;;;;;4992306;28;20373;-75
2021/05/24 12:48:51;;;;;;;1.55;0.90;;;19.10;94.70;;;;;;4993629;28;20032;-72
2021/05/24 12:51:19;;;;;;;2.60;1.00;;;19.00;95.50;;;;;;4992182;28;20042;-73
2021/05/24 12:53:57;;;;;;;1.85;0.90;;;19.20;95.10;;;;;;4993216;28;20451;-75
2021/05/24 12:56:32;;;;;;;1.60;1.00;;;19.40;94.50;;;;;;4992641;28;20030;-75